Wetterdaten: Woche 28.04.25 - 04.05.25 (KW18)
Datum Zeit Temp. I. Temp. A. Feuchte I. Feuchte A. Luftdruck Regen Wind Richtung Sonnenschein Solar Taupunkt Windchill Windböen
28.04.2025 00:00 21,4 °C 4,5 °C 48 % 91 % 1026,4 hPa 0,0 l/m² 0,0 km/h (0 Bft) O 0,00 h 0 W/m² 3,1 °C 4,5 °C 0,0 km/h (0 Bft)
28.04.2025 01:00 21,5 °C 3,7 °C 48 % 91 % 1026,3 hPa 0,0 l/m² 0,0 km/h (0 Bft) O 0,00 h 0 W/m² 2,4 °C 3,7 °C 0,0 km/h (0 Bft)
28.04.2025 02:00 21,4 °C 3,1 °C 48 % 92 % 1026,3 hPa 0,0 l/m² 0,0 km/h (0 Bft) O 0,00 h 0 W/m² 1,9 °C 3,1 °C 0,0 km/h (0 Bft)
28.04.2025 03:00 21,4 °C 2,0 °C 48 % 92 % 1026,4 hPa 0,0 l/m² 0,0 km/h (0 Bft) O-SO 0,00 h 0 W/m² 0,9 °C 2,0 °C 0,0 km/h (0 Bft)
28.04.2025 04:00 21,5 °C 1,3 °C 48 % 93 % 1026,5 hPa 0,0 l/m² 0,6 km/h (0 Bft) S 0,00 h 0 W/m² 0,2 °C 1,3 °C 1,4 km/h (1 Bft)
28.04.2025 05:00 21,6 °C 1,1 °C 48 % 93 % 1026,7 hPa 0,0 l/m² 0,2 km/h (0 Bft) SW 0,00 h 7 W/m² 0,1 °C 1,1 °C 0,4 km/h (0 Bft)
28.04.2025 06:00 21,6 °C 1,2 °C 48 % 93 % 1026,8 hPa 0,0 l/m² 0,1 km/h (0 Bft) SW 0,15 h 35 W/m² 0,2 °C 1,2 °C 0,2 km/h (0 Bft)
28.04.2025 07:00 21,4 °C 3,5 °C 47 % 93 % 1026,9 hPa 0,0 l/m² 0,1 km/h (0 Bft) SW 1,00 h 128 W/m² 2,5 °C 3,5 °C 0,4 km/h (0 Bft)
28.04.2025 08:00 21,7 °C 7,1 °C 47 % 89 % 1026,9 hPa 0,0 l/m² 0,9 km/h (0 Bft) SW 1,00 h 322 W/m² 5,3 °C 7,1 °C 2,0 km/h (1 Bft)
28.04.2025 09:00 21,8 °C 10,4 °C 47 % 80 % 1027,0 hPa 0,0 l/m² 2,2 km/h (1 Bft) SW 1,00 h 463 W/m² 7,2 °C 10,4 °C 4,0 km/h (1 Bft)
28.04.2025 10:00 21,8 °C 13,6 °C 47 % 77 % 1027,1 hPa 0,0 l/m² 3,9 km/h (1 Bft) S-SO 1,00 h 661 W/m² 9,6 °C 13,6 °C 5,9 km/h (2 Bft)
28.04.2025 11:00 21,9 °C 16,1 °C 47 % 70 % 1027,0 hPa 0,0 l/m² 3,8 km/h (1 Bft) S 1,00 h 764 W/m² 10,6 °C 16,1 °C 6,3 km/h (2 Bft)
28.04.2025 12:00 21,8 °C 17,9 °C 47 % 60 % 1026,8 hPa 0,0 l/m² 3,5 km/h (1 Bft) O 1,00 h 824 W/m² 10,1 °C 17,8 °C 6,0 km/h (2 Bft)
28.04.2025 13:00 21,8 °C 19,2 °C 47 % 51 % 1026,5 hPa 0,0 l/m² 2,4 km/h (1 Bft) W 1,00 h 832 W/m² 8,9 °C 19,2 °C 5,1 km/h (1 Bft)
28.04.2025 14:00 21,8 °C 20,1 °C 48 % 48 % 1026,2 hPa 0,0 l/m² 4,0 km/h (1 Bft) W 1,00 h 788 W/m² 8,9 °C 20,1 °C 7,3 km/h (2 Bft)
28.04.2025 15:00 21,8 °C 20,4 °C 48 % 46 % 1025,9 hPa 0,0 l/m² 5,0 km/h (1 Bft) W-SW 1,00 h 706 W/m² 8,3 °C 20,3 °C 8,0 km/h (2 Bft)
28.04.2025 16:00 21,8 °C 19,7 °C 48 % 53 % 1025,5 hPa 0,0 l/m² 5,4 km/h (1 Bft) S-SW 1,00 h 577 W/m² 9,7 °C 19,6 °C 7,4 km/h (2 Bft)
28.04.2025 17:00 21,8 °C 19,6 °C 46 % 50 % 1025,3 hPa 0,0 l/m² 1,1 km/h (1 Bft) S 1,00 h 425 W/m² 8,9 °C 19,6 °C 2,3 km/h (1 Bft)
28.04.2025 18:00 21,7 °C 19,3 °C 45 % 51 % 1025,2 hPa 0,0 l/m² 1,7 km/h (1 Bft) S 0,88 h 193 W/m² 9,0 °C 19,3 °C 3,0 km/h (1 Bft)
28.04.2025 19:00 21,7 °C 18,4 °C 45 % 54 % 1025,1 hPa 0,0 l/m² 0,5 km/h (0 Bft) S 0,08 h 34 W/m² 9,0 °C 18,4 °C 0,9 km/h (0 Bft)
28.04.2025 20:00 21,8 °C 13,1 °C 47 % 74 % 1025,1 hPa 0,0 l/m² 0,0 km/h (0 Bft) S 0,00 h 10 W/m² 8,5 °C 13,1 °C 0,0 km/h (0 Bft)
28.04.2025 21:00 22,0 °C 9,9 °C 49 % 82 % 1025,4 hPa 0,0 l/m² 0,0 km/h (0 Bft) S 0,00 h 0 W/m² 6,9 °C 9,9 °C 0,1 km/h (0 Bft)
28.04.2025 22:00 21,8 °C 8,3 °C 49 % 85 % 1025,8 hPa 0,0 l/m² 0,2 km/h (0 Bft) S 0,00 h 0 W/m² 6,0 °C 8,3 °C 0,3 km/h (0 Bft)
28.04.2025 23:00 21,7 °C 7,1 °C 49 % 88 % 1026,0 hPa 0,0 l/m² 0,0 km/h (0 Bft) S 0,00 h 0 W/m² 5,2 °C 7,1 °C 0,0 km/h (0 Bft)
29.04.2025 00:00 21,6 °C 5,8 °C 49 % 90 % 1026,1 hPa 0,0 l/m² 0,0 km/h (0 Bft) S 0,00 h 0 W/m² 4,3 °C 5,8 °C 0,0 km/h (0 Bft)
29.04.2025 01:00 21,6 °C 4,8 °C 49 % 91 % 1026,0 hPa 0,0 l/m² 0,0 km/h (0 Bft) S 0,00 h 0 W/m² 3,4 °C 4,8 °C 0,0 km/h (0 Bft)
29.04.2025 02:00 21,7 °C 4,2 °C 49 % 92 % 1025,8 hPa 0,0 l/m² 0,0 km/h (0 Bft) S 0,00 h 0 W/m² 3,1 °C 4,2 °C 0,0 km/h (0 Bft)
29.04.2025 03:00 21,6 °C 3,2 °C 49 % 92 % 1025,8 hPa 0,0 l/m² 0,0 km/h (0 Bft) S 0,00 h 0 W/m² 2,1 °C 3,2 °C 0,0 km/h (0 Bft)
29.04.2025 04:00 21,6 °C 2,8 °C 49 % 93 % 1025,8 hPa 0,0 l/m² 0,0 km/h (0 Bft) S 0,00 h 0 W/m² 1,8 °C 2,8 °C 0,0 km/h (0 Bft)
29.04.2025 05:00 21,7 °C 2,1 °C 49 % 93 % 1026,0 hPa 0,0 l/m² 0,3 km/h (0 Bft) S 0,00 h 7 W/m² 1,1 °C 2,1 °C 0,7 km/h (0 Bft)
29.04.2025 06:00 21,7 °C 2,6 °C 48 % 94 % 1026,2 hPa 0,0 l/m² 0,3 km/h (0 Bft) W 0,00 h 26 W/m² 1,7 °C 2,6 °C 0,8 km/h (0 Bft)
29.04.2025 07:00 21,7 °C 5,2 °C 47 % 95 % 1026,5 hPa 0,0 l/m² 0,0 km/h (0 Bft) W 0,98 h 143 W/m² 4,4 °C 5,2 °C 0,2 km/h (0 Bft)
29.04.2025 08:00 21,8 °C 10,3 °C 47 % 87 % 1026,7 hPa 0,0 l/m² 2,2 km/h (1 Bft) W 1,00 h 309 W/m² 8,2 °C 10,3 °C 3,7 km/h (1 Bft)
29.04.2025 09:00 21,9 °C 14,8 °C 47 % 75 % 1026,7 hPa 0,0 l/m² 4,0 km/h (1 Bft) W-SW 1,00 h 511 W/m² 10,4 °C 14,8 °C 6,3 km/h (2 Bft)
29.04.2025 10:00 22,1 °C 17,9 °C 47 % 60 % 1026,7 hPa 0,0 l/m² 4,7 km/h (1 Bft) W 1,00 h 656 W/m² 9,9 °C 17,8 °C 7,9 km/h (2 Bft)
29.04.2025 11:00 22,1 °C 19,4 °C 47 % 56 % 1026,6 hPa 0,0 l/m² 5,6 km/h (2 Bft) W 1,00 h 764 W/m² 10,2 °C 19,1 °C 9,2 km/h (2 Bft)
29.04.2025 12:00 22,1 °C 20,1 °C 47 % 55 % 1026,4 hPa 0,0 l/m² 4,9 km/h (1 Bft) N-NW 1,00 h 761 W/m² 10,7 °C 20,0 °C 8,6 km/h (2 Bft)
29.04.2025 13:00 22,1 °C 20,7 °C 47 % 53 % 1026,1 hPa 0,0 l/m² 5,3 km/h (1 Bft) W-SW 1,00 h 815 W/m² 10,7 °C 20,4 °C 8,9 km/h (2 Bft)
29.04.2025 14:00 22,1 °C 21,6 °C 48 % 48 % 1025,4 hPa 0,0 l/m² 4,4 km/h (1 Bft) W 1,00 h 776 W/m² 10,1 °C 21,5 °C 8,0 km/h (2 Bft)
29.04.2025 15:00 22,1 °C 21,9 °C 48 % 50 % 1025,0 hPa 0,0 l/m² 3,9 km/h (1 Bft) W-SW 1,00 h 701 W/m² 10,9 °C 21,8 °C 6,6 km/h (2 Bft)
29.04.2025 16:00 22,1 °C 22,6 °C 48 % 47 % 1024,5 hPa 0,0 l/m² 6,4 km/h (2 Bft) N-NW 1,00 h 568 W/m² 10,8 °C 22,3 °C 10,5 km/h (2 Bft)
29.04.2025 17:00 22,1 °C 22,1 °C 48 % 50 % 1024,2 hPa 0,0 l/m² 6,9 km/h (2 Bft) NW 1,00 h 403 W/m² 11,1 °C 21,8 °C 11,0 km/h (2 Bft)
29.04.2025 18:00 22,1 °C 21,6 °C 48 % 51 % 1024,0 hPa 0,0 l/m² 5,9 km/h (2 Bft) NW 1,00 h 187 W/m² 10,9 °C 21,4 °C 8,9 km/h (2 Bft)
29.04.2025 19:00 22,1 °C 20,1 °C 49 % 59 % 1023,8 hPa 0,0 l/m² 3,6 km/h (1 Bft) N-NW 0,12 h 40 W/m² 11,8 °C 20,1 °C 5,7 km/h (2 Bft)
29.04.2025 20:00 22,3 °C 16,1 °C 51 % 72 % 1023,9 hPa 0,0 l/m² 1,8 km/h (1 Bft) N-NW 0,00 h 13 W/m² 10,9 °C 16,1 °C 2,5 km/h (1 Bft)
29.04.2025 21:00 22,3 °C 12,3 °C 51 % 82 % 1024,3 hPa 0,0 l/m² 0,0 km/h (0 Bft) N-NW 0,00 h 0 W/m² 9,3 °C 12,3 °C 0,0 km/h (0 Bft)
29.04.2025 22:00 22,3 °C 10,5 °C 51 % 88 % 1024,4 hPa 0,0 l/m² 0,0 km/h (0 Bft) N-NW 0,00 h 0 W/m² 8,6 °C 10,5 °C 0,0 km/h (0 Bft)
29.04.2025 23:00 22,1 °C 9,3 °C 51 % 90 % 1024,4 hPa 0,0 l/m² 0,0 km/h (0 Bft) N-NW 0,00 h 0 W/m² 7,8 °C 9,3 °C 0,0 km/h (0 Bft)
30.04.2025 00:00 22,1 °C 8,6 °C 51 % 91 % 1024,6 hPa 0,0 l/m² 0,0 km/h (0 Bft) N-NW 0,00 h 0 W/m² 7,3 °C 8,6 °C 0,0 km/h (0 Bft)
30.04.2025 01:00 22,0 °C 7,7 °C 51 % 92 % 1024,6 hPa 0,0 l/m² 0,0 km/h (0 Bft) N-NW 0,00 h 0 W/m² 6,4 °C 7,7 °C 0,0 km/h (0 Bft)
30.04.2025 02:00 21,9 °C 7,2 °C 51 % 93 % 1024,4 hPa 0,0 l/m² 0,0 km/h (0 Bft) N-NW 0,00 h 0 W/m² 6,1 °C 7,2 °C 0,1 km/h (0 Bft)
30.04.2025 03:00 21,8 °C 6,9 °C 51 % 93 % 1024,4 hPa 0,0 l/m² 0,0 km/h (0 Bft) NW 0,00 h 0 W/m² 5,8 °C 6,9 °C 0,0 km/h (0 Bft)
30.04.2025 04:00 21,8 °C 6,6 °C 51 % 94 % 1024,5 hPa 0,0 l/m² 0,1 km/h (0 Bft) W-NW 0,00 h 0 W/m² 5,7 °C 6,6 °C 0,4 km/h (0 Bft)
30.04.2025 05:00 21,9 °C 6,4 °C 51 % 94 % 1024,4 hPa 0,0 l/m² 0,0 km/h (0 Bft) W-NW 0,00 h 6 W/m² 5,5 °C 6,4 °C 0,0 km/h (0 Bft)
30.04.2025 06:00 21,9 °C 6,7 °C 50 % 94 % 1024,4 hPa 0,0 l/m² 0,2 km/h (0 Bft) W 0,08 h 30 W/m² 5,8 °C 6,7 °C 0,6 km/h (0 Bft)
30.04.2025 07:00 21,8 °C 9,1 °C 49 % 95 % 1024,5 hPa 0,0 l/m² 0,9 km/h (0 Bft) W 1,00 h 140 W/m² 8,4 °C 9,1 °C 1,4 km/h (1 Bft)
30.04.2025 08:00 22,0 °C 13,1 °C 49 % 89 % 1024,6 hPa 0,0 l/m² 3,4 km/h (1 Bft) W-SW 1,00 h 320 W/m² 11,4 °C 13,1 °C 5,4 km/h (1 Bft)
30.04.2025 09:00 22,1 °C 16,2 °C 49 % 83 % 1024,5 hPa 0,0 l/m² 1,8 km/h (1 Bft) SW 1,00 h 504 W/m² 13,3 °C 16,2 °C 3,6 km/h (1 Bft)
30.04.2025 10:00 22,2 °C 18,0 °C 49 % 80 % 1024,4 hPa 0,0 l/m² 2,5 km/h (1 Bft) S-SW 1,00 h 641 W/m² 14,5 °C 18,0 °C 4,4 km/h (1 Bft)
30.04.2025 11:00 22,2 °C 20,0 °C 49 % 73 % 1024,4 hPa 0,0 l/m² 2,5 km/h (1 Bft) SW 1,00 h 752 W/m² 14,9 °C 20,0 °C 4,9 km/h (1 Bft)
30.04.2025 12:00 22,3 °C 21,2 °C 49 % 65 % 1024,2 hPa 0,0 l/m² 3,9 km/h (1 Bft) SW 1,00 h 811 W/m² 14,4 °C 21,2 °C 6,7 km/h (2 Bft)
30.04.2025 13:00 22,3 °C 22,0 °C 49 % 63 % 1023,8 hPa 0,0 l/m² 3,6 km/h (1 Bft) SW 1,00 h 838 W/m² 14,5 °C 22,0 °C 6,5 km/h (2 Bft)
30.04.2025 14:00 22,3 °C 22,9 °C 49 % 58 % 1023,4 hPa 0,0 l/m² 4,8 km/h (1 Bft) W-SW 1,00 h 794 W/m² 14,1 °C 22,9 °C 8,2 km/h (2 Bft)
30.04.2025 15:00 22,3 °C 23,1 °C 49 % 57 % 1022,9 hPa 0,0 l/m² 3,4 km/h (1 Bft) W 0,98 h 694 W/m² 14,0 °C 23,1 °C 6,2 km/h (2 Bft)
30.04.2025 16:00 22,3 °C 23,7 °C 50 % 52 % 1022,3 hPa 0,0 l/m² 4,7 km/h (1 Bft) W-NW 1,00 h 562 W/m² 13,1 °C 23,6 °C 8,8 km/h (2 Bft)
30.04.2025 17:00 22,4 °C 23,5 °C 50 % 52 % 1021,9 hPa 0,0 l/m² 5,6 km/h (2 Bft) NW 1,00 h 392 W/m² 12,9 °C 23,3 °C 9,6 km/h (2 Bft)
30.04.2025 18:00 22,4 °C 22,7 °C 50 % 55 % 1021,6 hPa 0,0 l/m² 4,9 km/h (1 Bft) N 1,02 h 156 W/m² 13,0 °C 22,6 °C 9,0 km/h (2 Bft)
30.04.2025 19:00 22,3 °C 21,5 °C 50 % 58 % 1021,4 hPa 0,0 l/m² 3,2 km/h (1 Bft) N-NW 0,07 h 38 W/m² 13,0 °C 21,5 °C 5,0 km/h (1 Bft)
30.04.2025 20:00 22,3 °C 16,9 °C 51 % 76 % 1021,5 hPa 0,0 l/m² 0,0 km/h (0 Bft) N-NW 0,00 h 11 W/m² 12,6 °C 16,9 °C 0,1 km/h (0 Bft)
30.04.2025 21:00 22,3 °C 13,2 °C 51 % 87 % 1021,9 hPa 0,0 l/m² 0,0 km/h (0 Bft) N-NW 0,00 h 0 W/m² 11,0 °C 13,2 °C 0,0 km/h (0 Bft)
30.04.2025 22:00 22,3 °C 11,6 °C 51 % 90 % 1021,9 hPa 0,0 l/m² 0,0 km/h (0 Bft) N-NW 0,00 h 0 W/m² 10,0 °C 11,6 °C 0,0 km/h (0 Bft)
30.04.2025 23:00 22,3 °C 10,4 °C 51 % 91 % 1022,1 hPa 0,0 l/m² 0,1 km/h (0 Bft) W-NW 0,00 h 0 W/m² 9,0 °C 10,4 °C 0,3 km/h (0 Bft)
01.05.2025 00:00 22,3 °C 9,9 °C 51 % 92 % 1022,2 hPa 0,0 l/m² 0,0 km/h (0 Bft) W-NW 0,00 h 0 W/m² 8,7 °C 9,9 °C 0,0 km/h (0 Bft)
01.05.2025 01:00 22,2 °C 9,1 °C 51 % 93 % 1022,2 hPa 0,0 l/m² 0,0 km/h (0 Bft) W-NW 0,00 h 0 W/m² 8,0 °C 9,1 °C 0,0 km/h (0 Bft)
01.05.2025 02:00 22,2 °C 8,4 °C 51 % 93 % 1022,0 hPa 0,0 l/m² 0,0 km/h (0 Bft) W-NW 0,00 h 0 W/m² 7,4 °C 8,4 °C 0,1 km/h (0 Bft)
01.05.2025 03:00 22,2 °C 7,4 °C 51 % 93 % 1022,0 hPa 0,0 l/m² 0,2 km/h (0 Bft) W-NW 0,00 h 0 W/m² 6,4 °C 7,4 °C 0,5 km/h (0 Bft)
01.05.2025 04:00 22,1 °C 7,0 °C 51 % 94 % 1022,1 hPa 0,0 l/m² 0,0 km/h (0 Bft) W-NW 0,00 h 0 W/m² 6,1 °C 7,0 °C 0,0 km/h (0 Bft)
01.05.2025 05:00 22,1 °C 6,5 °C 50 % 94 % 1022,2 hPa 0,0 l/m² 0,0 km/h (0 Bft) W-NW 0,00 h 7 W/m² 5,6 °C 6,5 °C 0,0 km/h (0 Bft)
01.05.2025 06:00 22,0 °C 6,7 °C 50 % 94 % 1022,5 hPa 0,0 l/m² 0,0 km/h (0 Bft) W-NW 0,22 h 34 W/m² 5,8 °C 6,7 °C 0,0 km/h (0 Bft)
01.05.2025 07:00 22,0 °C 8,7 °C 50 % 95 % 1022,6 hPa 0,0 l/m² 0,0 km/h (0 Bft) W-NW 1,00 h 146 W/m² 8,0 °C 8,7 °C 0,0 km/h (0 Bft)
01.05.2025 08:00 22,1 °C 13,1 °C 51 % 91 % 1022,6 hPa 0,0 l/m² 1,3 km/h (1 Bft) W-NW 1,00 h 323 W/m² 11,6 °C 13,1 °C 2,0 km/h (1 Bft)
01.05.2025 09:00 22,3 °C 17,9 °C 51 % 76 % 1022,5 hPa 0,0 l/m² 2,1 km/h (1 Bft) O-NO 1,00 h 528 W/m² 13,6 °C 17,9 °C 3,8 km/h (1 Bft)
01.05.2025 10:00 22,4 °C 20,7 °C 51 % 67 % 1022,5 hPa 0,0 l/m² 5,9 km/h (2 Bft) O 1,00 h 668 W/m² 14,4 °C 20,4 °C 8,9 km/h (2 Bft)
01.05.2025 11:00 22,4 °C 21,9 °C 50 % 63 % 1022,2 hPa 0,0 l/m² 8,0 km/h (2 Bft) O 1,00 h 748 W/m² 14,6 °C 21,2 °C 12,0 km/h (2 Bft)
01.05.2025 12:00 22,4 °C 23,0 °C 50 % 60 % 1021,7 hPa 0,0 l/m² 8,2 km/h (2 Bft) O 1,00 h 818 W/m² 14,8 °C 22,3 °C 12,2 km/h (2 Bft)
01.05.2025 13:00 22,4 °C 23,5 °C 50 % 59 % 1021,0 hPa 0,0 l/m² 7,0 km/h (2 Bft) O 1,00 h 827 W/m² 14,9 °C 23,0 °C 10,5 km/h (2 Bft)
01.05.2025 14:00 22,4 °C 23,7 °C 51 % 59 % 1020,4 hPa 0,0 l/m² 5,6 km/h (2 Bft) O 1,00 h 771 W/m² 15,2 °C 23,5 °C 8,5 km/h (2 Bft)
01.05.2025 15:00 22,6 °C 24,2 °C 51 % 58 % 1019,6 hPa 0,0 l/m² 5,7 km/h (2 Bft) S-SW 1,00 h 702 W/m² 15,3 °C 24,0 °C 8,3 km/h (2 Bft)
01.05.2025 16:00 22,6 °C 24,2 °C 49 % 55 % 1018,9 hPa 0,0 l/m² 2,7 km/h (1 Bft) S-SO 1,00 h 582 W/m² 14,5 °C 24,2 °C 4,6 km/h (1 Bft)
01.05.2025 17:00 22,6 °C 23,9 °C 48 % 54 % 1018,2 hPa 0,0 l/m² 3,0 km/h (1 Bft) S-SO 1,00 h 427 W/m² 14,1 °C 23,9 °C 4,7 km/h (1 Bft)
01.05.2025 18:00 22,6 °C 23,3 °C 48 % 55 % 1017,8 hPa 0,0 l/m² 3,9 km/h (1 Bft) SO 0,93 h 174 W/m² 13,7 °C 23,1 °C 5,9 km/h (2 Bft)
01.05.2025 19:00 22,6 °C 21,3 °C 50 % 61 % 1017,4 hPa 0,0 l/m² 6,3 km/h (2 Bft) O-NO 0,02 h 33 W/m² 13,5 °C 21,1 °C 8,5 km/h (2 Bft)
01.05.2025 20:00 22,5 °C 18,2 °C 50 % 72 % 1017,3 hPa 0,0 l/m² 2,3 km/h (1 Bft) O-NO 0,00 h 12 W/m² 13,0 °C 18,2 °C 3,2 km/h (1 Bft)
01.05.2025 21:00 22,6 °C 14,5 °C 51 % 82 % 1017,4 hPa 0,0 l/m² 0,0 km/h (0 Bft) O-NO 0,00 h 0 W/m² 11,5 °C 14,5 °C 0,0 km/h (0 Bft)
01.05.2025 22:00 22,6 °C 12,8 °C 52 % 88 % 1017,4 hPa 0,0 l/m² 0,0 km/h (0 Bft) O-NO 0,00 h 0 W/m² 10,8 °C 12,8 °C 0,0 km/h (0 Bft)
01.05.2025 23:00 22,5 °C 11,8 °C 52 % 91 % 1017,2 hPa 0,0 l/m² 0,0 km/h (0 Bft) O-NO 0,00 h 0 W/m² 10,4 °C 11,8 °C 0,0 km/h (0 Bft)
02.05.2025 00:00 22,4 °C 11,3 °C 52 % 92 % 1016,9 hPa 0,0 l/m² 0,0 km/h (0 Bft) O-NO 0,00 h 0 W/m² 10,0 °C 11,3 °C 0,0 km/h (0 Bft)
02.05.2025 01:00 22,4 °C 10,5 °C 52 % 93 % 1016,4 hPa 0,0 l/m² 0,0 km/h (0 Bft) O-NO 0,00 h 0 W/m² 9,4 °C 10,5 °C 0,0 km/h (0 Bft)
02.05.2025 02:00 22,4 °C 9,4 °C 52 % 93 % 1016,2 hPa 0,0 l/m² 0,3 km/h (0 Bft) O-NO 0,00 h 0 W/m² 8,4 °C 9,4 °C 0,6 km/h (0 Bft)
02.05.2025 03:00 22,3 °C 9,1 °C 52 % 94 % 1015,8 hPa 0,0 l/m² 0,0 km/h (0 Bft) N-NW 0,00 h 0 W/m² 8,2 °C 9,1 °C 0,0 km/h (0 Bft)
02.05.2025 04:00 22,3 °C 9,3 °C 52 % 94 % 1015,4 hPa 0,0 l/m² 0,0 km/h (0 Bft) N-NW 0,00 h 0 W/m² 8,4 °C 9,3 °C 0,0 km/h (0 Bft)
02.05.2025 05:00 22,3 °C 8,7 °C 51 % 94 % 1015,2 hPa 0,0 l/m² 0,5 km/h (0 Bft) N 0,00 h 8 W/m² 7,8 °C 8,7 °C 0,8 km/h (0 Bft)
02.05.2025 06:00 22,2 °C 9,0 °C 52 % 95 % 1015,1 hPa 0,0 l/m² 1,4 km/h (1 Bft) O-NO 0,25 h 46 W/m² 8,1 °C 9,0 °C 2,6 km/h (1 Bft)
02.05.2025 07:00 22,2 °C 12,5 °C 52 % 94 % 1014,9 hPa 0,0 l/m² 3,1 km/h (1 Bft) O-NO 1,00 h 156 W/m² 11,5 °C 12,5 °C 4,5 km/h (1 Bft)
02.05.2025 08:00 22,2 °C 16,9 °C 52 % 82 % 1014,8 hPa 0,0 l/m² 3,0 km/h (1 Bft) S-SO 1,00 h 269 W/m² 13,8 °C 16,9 °C 5,0 km/h (1 Bft)
02.05.2025 09:00 22,2 °C 20,4 °C 52 % 71 % 1014,7 hPa 0,0 l/m² 7,2 km/h (2 Bft) S-SW 1,00 h 501 W/m² 14,8 °C 19,9 °C 11,3 km/h (2 Bft)
02.05.2025 10:00 22,3 °C 22,9 °C 52 % 65 % 1014,4 hPa 0,0 l/m² 10,6 km/h (2 Bft) SW 1,00 h 670 W/m² 15,9 °C 21,8 °C 15,2 km/h (3 Bft)
02.05.2025 11:00 22,4 °C 24,6 °C 52 % 61 % 1014,2 hPa 0,0 l/m² 11,6 km/h (2 Bft) SW 0,98 h 758 W/m² 16,4 °C 23,4 °C 16,4 km/h (3 Bft)
02.05.2025 12:00 22,3 °C 26,0 °C 52 % 58 % 1013,7 hPa 0,0 l/m² 13,0 km/h (3 Bft) SW 1,00 h 829 W/m² 17,0 °C 24,8 °C 18,1 km/h (3 Bft)
02.05.2025 13:00 22,3 °C 26,8 °C 52 % 49 % 1013,4 hPa 0,0 l/m² 18,5 km/h (3 Bft) SW 1,00 h 827 W/m² 15,0 °C 25,1 °C 26,5 km/h (4 Bft)
02.05.2025 14:00 22,3 °C 27,1 °C 52 % 49 % 1013,2 hPa 0,0 l/m² 15,6 km/h (3 Bft) SW 1,00 h 761 W/m² 15,3 °C 25,8 °C 22,9 km/h (4 Bft)
02.05.2025 15:00 22,4 °C 26,8 °C 52 % 50 % 1012,6 hPa 0,0 l/m² 14,3 km/h (3 Bft) SW 1,02 h 544 W/m² 15,3 °C 25,6 °C 20,1 km/h (4 Bft)
02.05.2025 16:00 22,6 °C 23,1 °C 52 % 60 % 1012,3 hPa 0,0 l/m² 14,0 km/h (3 Bft) S-SW 1,00 h 273 W/m² 14,8 °C 21,4 °C 18,8 km/h (3 Bft)
02.05.2025 17:00 22,5 °C 23,0 °C 52 % 64 % 1011,9 hPa 0,0 l/m² 4,7 km/h (1 Bft) W-SW 1,00 h 132 W/m² 15,9 °C 22,9 °C 6,8 km/h (2 Bft)
02.05.2025 18:00 22,4 °C 22,7 °C 53 % 67 % 1011,5 hPa 0,0 l/m² 1,9 km/h (1 Bft) W-SW 0,48 h 59 W/m² 16,3 °C 22,7 °C 3,3 km/h (1 Bft)
02.05.2025 19:00 22,4 °C 20,1 °C 53 % 67 % 1012,2 hPa 0,0 l/m² 16,9 km/h (3 Bft) N-NW 0,25 h 43 W/m² 13,7 °C 17,2 °C 25,6 km/h (4 Bft)
02.05.2025 20:00 22,5 °C 17,9 °C 53 % 74 % 1012,4 hPa 0,0 l/m² 2,0 km/h (1 Bft) W 0,00 h 17 W/m² 13,2 °C 17,9 °C 4,0 km/h (1 Bft)
02.05.2025 21:00 22,6 °C 16,1 °C 53 % 81 % 1012,7 hPa 0,0 l/m² 0,5 km/h (0 Bft) W 0,00 h 0 W/m² 12,9 °C 16,1 °C 1,0 km/h (0 Bft)
02.05.2025 22:00 22,7 °C 14,8 °C 54 % 88 % 1012,9 hPa 1,2 l/m² 3,0 km/h (1 Bft) NW 0,00 h 0 W/m² 12,8 °C 14,7 °C 4,3 km/h (1 Bft)
02.05.2025 23:00 22,5 °C 14,6 °C 54 % 92 % 1013,1 hPa 1,0 l/m² 3,0 km/h (1 Bft) S-SW 0,00 h 0 W/m² 13,3 °C 14,5 °C 4,3 km/h (1 Bft)
03.05.2025 00:00 22,4 °C 13,4 °C 54 % 93 % 1012,5 hPa 0,0 l/m² 0,8 km/h (0 Bft) W 0,00 h 0 W/m² 12,3 °C 13,4 °C 1,5 km/h (1 Bft)
03.05.2025 01:00 22,4 °C 12,1 °C 53 % 94 % 1012,3 hPa 0,0 l/m² 0,5 km/h (0 Bft) W 0,00 h 0 W/m² 11,1 °C 12,1 °C 1,0 km/h (0 Bft)
03.05.2025 02:00 22,3 °C 11,2 °C 53 % 95 % 1012,3 hPa 0,0 l/m² 0,4 km/h (0 Bft) W 0,00 h 0 W/m² 10,3 °C 11,2 °C 1,2 km/h (1 Bft)
03.05.2025 03:00 22,3 °C 10,8 °C 53 % 95 % 1012,4 hPa 0,0 l/m² 0,9 km/h (0 Bft) SW 0,00 h 0 W/m² 10,0 °C 10,8 °C 1,7 km/h (1 Bft)
03.05.2025 04:00 22,3 °C 10,8 °C 53 % 95 % 1012,2 hPa 0,0 l/m² 0,9 km/h (0 Bft) SW 0,00 h 0 W/m² 10,0 °C 10,8 °C 1,9 km/h (1 Bft)
03.05.2025 05:00 22,2 °C 11,5 °C 53 % 96 % 1012,1 hPa 0,0 l/m² 1,1 km/h (0 Bft) SW 0,00 h 8 W/m² 10,8 °C 11,5 °C 2,7 km/h (1 Bft)
03.05.2025 06:00 22,2 °C 11,3 °C 53 % 95 % 1012,0 hPa 0,0 l/m² 3,5 km/h (1 Bft) W-NW 0,35 h 45 W/m² 10,5 °C 11,3 °C 7,2 km/h (2 Bft)
03.05.2025 07:00 22,1 °C 12,0 °C 53 % 90 % 1011,8 hPa 0,0 l/m² 5,7 km/h (2 Bft) N-NW 1,00 h 152 W/m² 10,4 °C 11,6 °C 10,6 km/h (2 Bft)
03.05.2025 08:00 22,1 °C 12,8 °C 53 % 83 % 1011,8 hPa 0,0 l/m² 6,4 km/h (2 Bft) NW 1,00 h 290 W/m² 10,0 °C 12,4 °C 10,3 km/h (2 Bft)
03.05.2025 09:00 22,2 °C 14,5 °C 53 % 76 % 1011,7 hPa 0,0 l/m² 4,8 km/h (1 Bft) NW 1,00 h 454 W/m² 10,4 °C 14,5 °C 8,3 km/h (2 Bft)
03.05.2025 10:00 22,1 °C 15,1 °C 52 % 73 % 1011,4 hPa 0,0 l/m² 5,6 km/h (2 Bft) NW 1,00 h 394 W/m² 10,3 °C 14,7 °C 8,9 km/h (2 Bft)
03.05.2025 11:00 22,1 °C 15,5 °C 52 % 74 % 1011,2 hPa 0,0 l/m² 4,7 km/h (1 Bft) S-SO 1,00 h 547 W/m² 10,9 °C 15,3 °C 7,7 km/h (2 Bft)
03.05.2025 12:00 22,1 °C 15,1 °C 53 % 77 % 1010,8 hPa 0,4 l/m² 2,9 km/h (1 Bft) S 0,75 h 196 W/m² 11,1 °C 15,1 °C 4,5 km/h (1 Bft)
03.05.2025 13:00 22,0 °C 13,2 °C 53 % 89 % 1010,3 hPa 2,0 l/m² 2,4 km/h (1 Bft) W-SW 0,35 h 51 W/m² 11,4 °C 13,2 °C 3,6 km/h (1 Bft)
03.05.2025 14:00 21,9 °C 12,9 °C 53 % 90 % 1009,7 hPa 2,0 l/m² 3,3 km/h (1 Bft) N 0,18 h 42 W/m² 11,3 °C 12,5 °C 4,4 km/h (1 Bft)
03.05.2025 15:00 21,9 °C 12,7 °C 53 % 92 % 1008,5 hPa 2,4 l/m² 4,1 km/h (1 Bft) O-NO 0,30 h 40 W/m² 11,5 °C 12,4 °C 6,1 km/h (2 Bft)
03.05.2025 16:00 21,8 °C 12,8 °C 53 % 93 % 1007,1 hPa 0,4 l/m² 2,9 km/h (1 Bft) O 0,23 h 48 W/m² 11,8 °C 12,8 °C 4,5 km/h (1 Bft)
03.05.2025 17:00 21,8 °C 13,5 °C 53 % 94 % 1005,7 hPa 0,0 l/m² 1,9 km/h (1 Bft) O-NO 0,85 h 117 W/m² 12,5 °C 13,5 °C 3,4 km/h (1 Bft)
03.05.2025 18:00 21,8 °C 13,8 °C 53 % 93 % 1004,7 hPa 0,2 l/m² 0,7 km/h (0 Bft) N 0,18 h 31 W/m² 12,7 °C 13,8 °C 1,3 km/h (1 Bft)
03.05.2025 19:00 21,7 °C 13,4 °C 53 % 94 % 1004,2 hPa 4,6 l/m² 1,2 km/h (1 Bft) S-SW 0,00 h 6 W/m² 12,4 °C 13,4 °C 2,5 km/h (1 Bft)
03.05.2025 20:00 21,7 °C 13,3 °C 53 % 94 % 1004,3 hPa 1,6 l/m² 5,7 km/h (2 Bft) S-SW 0,00 h 5 W/m² 12,5 °C 13,0 °C 7,9 km/h (2 Bft)
03.05.2025 21:00 21,7 °C 13,7 °C 53 % 95 % 1004,5 hPa 2,0 l/m² 3,6 km/h (1 Bft) SW 0,00 h 0 W/m² 12,9 °C 13,5 °C 5,7 km/h (2 Bft)
03.05.2025 22:00 21,7 °C 13,6 °C 53 % 95 % 1004,7 hPa 0,8 l/m² 3,2 km/h (1 Bft) W 0,00 h 0 W/m² 12,8 °C 13,6 °C 6,1 km/h (2 Bft)
03.05.2025 23:00 21,7 °C 12,7 °C 53 % 95 % 1005,2 hPa 0,2 l/m² 5,2 km/h (1 Bft) W 0,00 h 0 W/m² 11,9 °C 12,1 °C 9,0 km/h (2 Bft)
04.05.2025 00:00 21,7 °C 11,4 °C 53 % 92 % 1005,7 hPa 0,0 l/m² 6,6 km/h (2 Bft) W 0,00 h 0 W/m² 10,2 °C 10,8 °C 11,6 km/h (2 Bft)
04.05.2025 01:00 21,7 °C 10,1 °C 53 % 90 % 1006,3 hPa 0,0 l/m² 3,7 km/h (1 Bft) W 0,00 h 0 W/m² 8,5 °C 10,0 °C 7,5 km/h (2 Bft)
04.05.2025 02:00 21,7 °C 10,2 °C 53 % 87 % 1006,9 hPa 0,0 l/m² 10,9 km/h (2 Bft) W 0,00 h 0 W/m² 8,0 °C 7,4 °C 17,5 km/h (3 Bft)
04.05.2025 03:00 21,7 °C 8,6 °C 53 % 84 % 1008,1 hPa 0,0 l/m² 9,8 km/h (2 Bft) W 0,00 h 0 W/m² 6,1 °C 6,2 °C 15,6 km/h (3 Bft)
04.05.2025 04:00 21,6 °C 6,4 °C 52 % 88 % 1008,4 hPa 0,0 l/m² 4,9 km/h (1 Bft) W 0,00 h 0 W/m² 4,6 °C 5,9 °C 7,6 km/h (2 Bft)
04.05.2025 05:00 21,5 °C 5,4 °C 52 % 90 % 1008,6 hPa 0,0 l/m² 3,7 km/h (1 Bft) W-SW 0,00 h 8 W/m² 3,8 °C 5,4 °C 5,2 km/h (1 Bft)
04.05.2025 06:00 21,4 °C 5,5 °C 52 % 90 % 1009,2 hPa 0,0 l/m² 2,2 km/h (1 Bft) W-SW 0,22 h 35 W/m² 4,0 °C 5,5 °C 3,9 km/h (1 Bft)
04.05.2025 07:00 21,5 °C 7,9 °C 52 % 87 % 1009,7 hPa 0,0 l/m² 7,8 km/h (2 Bft) W-SW 1,00 h 153 W/m² 6,0 °C 6,5 °C 10,9 km/h (2 Bft)
04.05.2025 08:00 21,6 °C 9,0 °C 52 % 84 % 1009,9 hPa 0,0 l/m² 11,3 km/h (2 Bft) SW 0,93 h 168 W/m² 6,4 °C 5,9 °C 16,4 km/h (3 Bft)
04.05.2025 09:00 21,5 °C 10,2 °C 52 % 77 % 1010,1 hPa 0,0 l/m² 13,6 km/h (3 Bft) W 1,05 h 220 W/m² 6,3 °C 6,0 °C 20,5 km/h (4 Bft)
04.05.2025 10:00 21,5 °C 10,5 °C 52 % 77 % 1010,5 hPa 0,0 l/m² 12,7 km/h (3 Bft) W 1,00 h 265 W/m² 6,6 °C 6,9 °C 19,9 km/h (4 Bft)
04.05.2025 11:00 21,4 °C 10,6 °C 51 % 77 % 1011,0 hPa 0,0 l/m² 10,3 km/h (2 Bft) W 1,02 h 233 W/m² 6,7 °C 8,1 °C 16,4 km/h (3 Bft)
04.05.2025 12:00 21,4 °C 11,8 °C 50 % 73 % 1011,0 hPa 0,0 l/m² 10,6 km/h (2 Bft) W 1,00 h 388 W/m² 7,1 °C 9,4 °C 17,6 km/h (3 Bft)
04.05.2025 13:00 21,4 °C 12,3 °C 50 % 70 % 1011,0 hPa 0,0 l/m² 9,9 km/h (2 Bft) W 1,00 h 413 W/m² 6,9 °C 10,3 °C 17,2 km/h (3 Bft)
04.05.2025 14:00 21,4 °C 13,8 °C 51 % 62 % 1011,0 hPa 0,0 l/m² 11,2 km/h (2 Bft) W-NW 1,00 h 507 W/m² 6,6 °C 11,4 °C 20,0 km/h (4 Bft)
04.05.2025 15:00 21,6 °C 13,8 °C 51 % 60 % 1011,1 hPa 0,0 l/m² 10,0 km/h (2 Bft) W-NW 1,00 h 439 W/m² 6,2 °C 11,9 °C 17,7 km/h (3 Bft)
04.05.2025 16:00 21,7 °C 14,0 °C 50 % 60 % 1011,0 hPa 0,0 l/m² 9,6 km/h (2 Bft) NW 1,00 h 357 W/m² 6,4 °C 12,2 °C 16,3 km/h (3 Bft)
04.05.2025 17:00 21,6 °C 14,0 °C 49 % 58 % 1011,0 hPa 0,0 l/m² 11,2 km/h (2 Bft) NW 1,00 h 355 W/m² 5,9 °C 11,5 °C 18,3 km/h (3 Bft)
04.05.2025 18:00 21,6 °C 13,3 °C 50 % 60 % 1011,1 hPa 0,0 l/m² 11,5 km/h (2 Bft) NW 1,00 h 187 W/m² 5,8 °C 10,7 °C 17,4 km/h (3 Bft)
04.05.2025 19:00 21,7 °C 11,9 °C 51 % 65 % 1011,6 hPa 0,0 l/m² 7,7 km/h (2 Bft) NW 0,40 h 43 W/m² 5,6 °C 10,9 °C 13,3 km/h (3 Bft)
04.05.2025 20:00 21,7 °C 9,9 °C 52 % 71 % 1011,9 hPa 0,0 l/m² 7,7 km/h (2 Bft) NW 0,00 h 11 W/m² 5,0 °C 8,8 °C 11,5 km/h (2 Bft)
04.05.2025 21:00 22,0 °C 7,9 °C 53 % 80 % 1012,5 hPa 0,0 l/m² 4,0 km/h (1 Bft) NW 0,00 h 0 W/m² 4,6 °C 7,9 °C 5,9 km/h (2 Bft)
04.05.2025 22:00 21,9 °C 6,7 °C 51 % 83 % 1013,0 hPa 0,0 l/m² 3,0 km/h (1 Bft) W-NW 0,00 h 0 W/m² 4,0 °C 6,7 °C 4,9 km/h (1 Bft)
04.05.2025 23:00 21,7 °C 5,9 °C 51 % 85 % 1013,4 hPa 0,0 l/m² 3,3 km/h (1 Bft) NW 0,00 h 0 W/m² 3,6 °C 5,9 °C 5,5 km/h (2 Bft)
Min-Datum _ 04.05.25 28.04.25 28.04.25 28.04.25 03.05.25 - 04.05.25 - - - 28.04.25 28.04.25 04.05.25
_ Min-Zeit 12:00 06:06 20:02 15:01 19:55 - 06:17 - - - 05:53 06:06 01:25
Minimum _ 21,3 °C 0,7 °C 45 % 40 % 1003,1 hPa - 0,0 km/h (0 Bft) - - - -0,4 °C 0,7 °C 0,0 km/h (0 Bft)
Max-Datum _ 02.05.25 02.05.25 04.05.25 03.05.25 29.04.25 03.05.25 02.05.25 - 04.05.25 04.05.25 02.05.25 02.05.25 02.05.25
_ Max-Zeit 22:00 15:26 20:36 06:00 10:59 19:06 15:58 - 09:01 13:38 12:04 15:23 19:04
Maximum _ 22,7 °C 28,1 °C 54 % 96 % 1027,2 hPa 4,6 l/m² 37,1 km/h
SW (5 Bft)
- 0,10 h 1130 W/m² 18,4 °C 27,7 °C 49,9 km/h
N-NW (7 Bft)
Durchschnitt _ 22,0 °C 13,6 °C 50 % 78 % 1018,4 hPa #18,8 l/m² 3,7 km/h (1 Bft) W #81:20 h 232 W/m² 9,4 °C 13,3 °C 5,9 km/h (2 Bft)
© 2009 Mathias Hoßbach